Portada
METAR-TAF:

METAR-TAF

Aeropuertos :

Kolda, Senegal

latitud: 12-53N, longitud: 014-58W, altitud: 10 m

Observación

El informe se hizo hace 46 minutos, a las 17:00 UTC
Viento 4 kt del noreste
Temperatura 37°C
Humedad 45%
Presión 1009 hPa
Visibilidad 10 km o más
Nubes dispersas a una altura de 1500 ft

METAR: GOGK 281700Z 04004KT 9999 SCT015 37/23 Q1009

Hora: 17:46 (17:46 UTC)


TAF: falta

Observaciones y pronósticos meteorológicos de más de 4000 aeropuertos (mensajes METAR y TAF).

Los puntos amarillos y rojos representan las estaciones disponibles.

Ponga el ratón en el punto deseado para ver el nombre de la estación.

Haga clic para ver las observaciones y los pronósticos meteorológicos.

Para cambiar el mapa : haga clic en los botones verdes con una cruz de color negro para hacer un zoom, en el botón verde con un guión para alejar o en las flechas verdes para mapas adyacentes.


METAR-TAF: